Airfield :
LOGIN :

Register | Disclaimer

   EN    FR    IT 

 










Legend :    VFR   Marginal VFR   IFR   Intensive IFR   Very Intensive IFR
Visi :
Ceiling :
>= 8 km
>= 3000ft
5 to 8 km
1000 to 3000 ft
1500m to 5 km
500 to 1000 ft
800 to 1500m
200 to 500 ft
< 800m
< 200 ft
Symbols :   Thunderstorms  Fog  Heavy snow  Heavy precipitations  Wind > 20 kt
SIGMETs :     Misc.  Thunderstorms  Icing  Turbulence  Mountain Waves  Volcanic Ashes







- Airport Elevation : 616 ft
- IATA code : PUF
- Download approach charts


LFBP - Pau

CURRENT METAR :
  • 251430Z AUTO 26007KT 9999 BKN030/// BKN066/// OVC120/// ///CB 19/16 Q1021 BECMG SCT020 BKN030

EXPIRED METARs :
  • 251400Z AUTO 28007KT 250V310 9999 FEW022/// BKN047/// OVC056/// ///CB 18/15 Q1021 BECMG SCT020 BKN030
  • 251330Z AUTO 22007KT 180V270 9999 BKN022/// BKN031/// BKN037/// ///CB 20/15 Q1021 BECMG SCT020 BKN030
  • 251300Z AUTO 24008KT 210V270 9999 BKN023/// BKN029/// ///CB 20/15 Q1021 TEMPO 4000 SHRA BECMG SCT020 BKN030
  • 251230Z AUTO 24010KT 210V270 9999 BKN021/// BKN027/// ///CB 20/15 Q1021 TEMPO 4000 SHRA BECMG SCT020 BKN030
  • 251200Z AUTO 26009KT 230V290 9999 BKN023/// BKN048/// OVC056/// ///CB 19/15 Q1021 TEMPO 4000 SHRA

TAF AMD TAF LFBP
Valid from the 25 at 12:00 until the 26 at 12:00 UTC


251212Z 2512/2612 27010KT 9999 SCT020 BKN030
TEMPO 2512/2514 4000 SHRA BKN015TCU FEW030CB
PROB30
TEMPO 2518/2524 4000 SHRA BKN015TCU
BECMG 2520/2522 VRB02KT
No reported NOTAMs for that airfield.
1 SIGMET reported for the Bordeaux FIR (LFBB) :
 
Embedded thunderstorms
LFBB SIGMET 11 VALID 251400/251600 LFPW
LFBB BORDEAUX FIR/UIR EMBD TS OBS WI N4615 W00015 - N4615 E00030 - N4400 E00115 - N4300 E00000 TOP FL300 MOV E 15KT NC=



MET'MAP, your aeronautical weather chart ! - Copyright ORBIFLY December 2007 - Disclaimer

ORBIFLY MET'MAP TEAM :

Programming & Development : Alexandra Zaïnal
Concept & Development : Baudouin d'Aumeries
Co-Development & Prog : Marc-Olivier Méhu
Technical & hardware support : Manuel Goepfert

Contact : metmap@orbifly.com




SOURCES & CREDITS :

   NOAA